createdAt,value
2018-03-23T00:01:02.508Z,96.62
2018-03-23T00:03:28.237Z,96.54
2018-03-23T00:05:53.971Z,96.56
2018-03-23T00:08:19.699Z,96.39
2018-03-23T00:10:46.347Z,96.52
2018-03-23T00:13:12.069Z,96.56
2018-03-23T00:15:37.801Z,96.61
2018-03-23T00:18:03.521Z,96.72
2018-03-23T00:20:29.257Z,96.80
2018-03-23T00:22:54.976Z,96.76
2018-03-23T00:25:20.721Z,96.94
2018-03-23T00:27:46.442Z,96.79
2018-03-23T00:30:12.226Z,96.54
2018-03-23T00:32:37.940Z,96.46
2018-03-23T00:35:03.678Z,96.54
2018-03-23T00:37:29.407Z,96.41
2018-03-23T00:39:55.154Z,96.35
2018-03-23T00:42:21.885Z,96.30
2018-03-23T00:44:47.606Z,96.33
2018-03-23T00:47:13.352Z,96.36
2018-03-23T00:49:39.094Z,96.37
2018-03-23T00:52:04.824Z,96.33
2018-03-23T00:54:30.551Z,96.79
2018-03-23T00:56:56.288Z,96.87
2018-03-23T00:59:22.018Z,97.00
2018-03-23T01:01:47.742Z,97.20
2018-03-23T01:04:13.469Z,97.20
2018-03-23T01:06:39.216Z,97.28
2018-03-23T01:09:04.949Z,97.37
2018-03-23T01:11:30.673Z,97.11
2018-03-23T01:13:56.390Z,96.95
2018-03-23T01:16:22.129Z,96.77
2018-03-23T01:18:47.846Z,96.83
2018-03-23T01:21:13.582Z,96.68
2018-03-23T01:23:39.310Z,96.41
2018-03-23T01:26:05.038Z,96.86
2018-03-23T01:28:30.766Z,96.99
2018-03-23T01:30:56.485Z,97.63
2018-03-23T01:33:22.236Z,97.81
2018-03-23T01:35:47.971Z,98.13
2018-03-23T01:38:13.711Z,98.13
2018-03-23T01:40:39.428Z,97.51
2018-03-23T01:43:05.162Z,97.84
2018-03-23T01:45:30.894Z,98.02
2018-03-23T01:47:56.637Z,97.78
2018-03-23T01:50:22.354Z,97.47
2018-03-23T01:52:48.085Z,97.68
2018-03-23T01:55:13.801Z,97.32
2018-03-23T01:57:39.526Z,97.01
2018-03-23T02:00:05.273Z,96.99
2018-03-23T02:02:31.023Z,97.01
2018-03-23T02:04:56.759Z,96.25
2018-03-23T02:07:22.490Z,96.51
2018-03-23T02:09:48.198Z,96.60
2018-03-23T02:12:13.920Z,96.54
2018-03-23T02:14:39.670Z,96.53
2018-03-23T02:17:05.407Z,96.69
2018-03-23T02:19:31.134Z,97.12
2018-03-23T02:21:56.858Z,97.56
2018-03-23T02:24:22.583Z,97.79
2018-03-23T02:26:48.300Z,97.90
2018-03-23T02:29:14.047Z,98.19
2018-03-23T02:31:39.798Z,97.65
2018-03-23T02:34:05.552Z,97.78
2018-03-23T02:36:31.304Z,97.54
2018-03-23T02:38:57.062Z,97.58
2018-03-23T02:41:22.803Z,97.20
2018-03-23T02:43:48.553Z,97.39
2018-03-23T02:46:14.274Z,97.71
2018-03-23T02:48:40.035Z,97.09
2018-03-23T02:51:05.758Z,97.02
2018-03-23T02:53:31.491Z,96.83
2018-03-23T02:55:57.216Z,96.95
2018-03-23T02:58:22.967Z,95.98
2018-03-23T03:00:48.698Z,96.04
2018-03-23T03:03:14.430Z,96.02
2018-03-23T03:05:40.163Z,94.77
2018-03-23T03:08:05.901Z,94.29
2018-03-23T03:10:31.638Z,94.32
2018-03-23T03:12:57.379Z,94.39
2018-03-23T03:15:23.106Z,94.09
2018-03-23T03:17:48.822Z,94.82
2018-03-23T03:20:14.568Z,95.44
2018-03-23T03:22:40.277Z,95.76
2018-03-23T03:25:06.010Z,95.98
2018-03-23T03:27:31.746Z,95.36
2018-03-23T03:29:57.483Z,94.66
2018-03-23T03:32:23.214Z,94.16
2018-03-23T03:34:48.951Z,93.99
2018-03-23T03:37:14.689Z,94.36
2018-03-23T03:39:40.421Z,93.59
2018-03-23T03:42:06.153Z,92.94
2018-03-23T03:47:04.484Z,93.68
2018-03-23T03:49:30.222Z,93.82
2018-03-23T03:51:55.950Z,94.16
2018-03-23T03:54:21.682Z,94.02
2018-03-23T03:56:47.431Z,92.36
2018-03-23T03:59:13.165Z,91.88
2018-03-23T04:01:38.906Z,92.17
2018-03-23T04:04:04.638Z,92.40
2018-03-23T04:06:30.375Z,92.23
2018-03-23T04:08:56.115Z,91.84
2018-03-23T04:11:21.855Z,92.74
2018-03-23T04:13:47.586Z,93.73
2018-03-23T04:16:13.377Z,93.86
2018-03-23T04:18:39.107Z,93.59
2018-03-23T04:21:04.836Z,93.88
2018-03-23T04:23:30.563Z,93.01
2018-03-23T04:25:56.301Z,93.36
2018-03-23T04:28:22.034Z,92.98
2018-03-23T04:30:47.778Z,93.82
2018-03-23T04:33:13.514Z,93.78
2018-03-23T04:35:39.282Z,94.21
2018-03-23T04:38:05.028Z,94.30
2018-03-23T04:40:30.756Z,94.22
2018-03-23T04:42:56.490Z,94.25
2018-03-23T04:45:22.211Z,94.04
2018-03-23T04:47:47.969Z,94.75
2018-03-23T04:50:13.715Z,94.52
2018-03-23T04:52:39.437Z,93.86
2018-03-23T04:55:05.172Z,93.84
2018-03-23T04:57:30.906Z,94.02
2018-03-23T04:59:56.634Z,93.89
2018-03-23T05:02:22.378Z,94.34
2018-03-23T05:04:48.111Z,94.39
2018-03-23T05:07:13.852Z,94.37
2018-03-23T05:09:39.585Z,94.79
2018-03-23T05:12:05.331Z,94.53
2018-03-23T05:14:31.058Z,93.90
2018-03-23T05:16:56.785Z,94.40
2018-03-23T05:19:22.531Z,94.59
2018-03-23T05:21:48.269Z,94.54
2018-03-23T05:24:13.990Z,94.46
2018-03-23T05:26:39.718Z,94.27
2018-03-23T05:29:05.450Z,94.37
2018-03-23T05:31:31.190Z,94.19
2018-03-23T05:33:56.917Z,94.23
2018-03-23T05:36:22.625Z,93.92
2018-03-23T05:38:48.342Z,93.64
2018-03-23T05:41:14.058Z,94.04
2018-03-23T05:43:39.793Z,94.69
2018-03-23T05:46:05.505Z,95.22
2018-03-23T05:48:31.242Z,95.05
2018-03-23T05:50:56.950Z,95.01
2018-03-23T05:53:23.462Z,95.05
2018-03-23T05:55:49.173Z,95.03
2018-03-23T05:58:14.889Z,95.01
2018-03-23T06:00:40.613Z,95.33
2018-03-23T06:03:06.356Z,95.37
2018-03-23T06:05:32.094Z,95.40
2018-03-23T06:07:57.823Z,95.03
2018-03-23T06:10:23.541Z,94.71
2018-03-23T06:12:49.280Z,94.76
2018-03-23T06:15:15.005Z,94.75
2018-03-23T06:17:40.721Z,94.90
2018-03-23T06:20:06.444Z,95.07
2018-03-23T06:22:32.185Z,95.01
2018-03-23T06:24:57.905Z,95.26
2018-03-23T06:27:23.626Z,95.62
2018-03-23T06:29:49.370Z,95.04
2018-03-23T06:32:15.085Z,95.06
2018-03-23T06:34:40.832Z,94.80
2018-03-23T06:37:06.556Z,94.85
2018-03-23T06:39:32.294Z,94.89
2018-03-23T06:41:58.010Z,95.13
2018-03-23T06:44:23.726Z,94.79
2018-03-23T06:46:49.441Z,94.63
2018-03-23T06:49:15.181Z,94.17
2018-03-23T06:51:40.902Z,94.29
2018-03-23T06:54:06.617Z,94.87
2018-03-23T06:56:32.346Z,95.06
2018-03-23T06:58:58.062Z,94.81
2018-03-23T07:01:23.785Z,94.46
2018-03-23T07:03:49.527Z,94.90
2018-03-23T07:06:15.250Z,94.64
2018-03-23T07:08:40.965Z,95.05
2018-03-23T07:11:06.699Z,95.63
2018-03-23T07:13:32.435Z,95.90
2018-03-23T07:15:58.162Z,95.96
2018-03-23T07:18:23.881Z,95.85
2018-03-23T07:20:49.605Z,96.14
2018-03-23T07:23:15.333Z,96.03
2018-03-23T07:25:41.065Z,95.93
2018-03-23T07:28:06.835Z,95.85
2018-03-23T07:30:32.574Z,96.09
2018-03-23T07:32:58.293Z,96.14
2018-03-23T07:35:24.009Z,95.97
2018-03-23T07:37:49.710Z,95.60
2018-03-23T07:40:15.439Z,95.54
2018-03-23T07:42:41.145Z,95.12
2018-03-23T07:45:06.875Z,95.12
2018-03-23T07:47:32.604Z,94.66
2018-03-23T07:49:58.327Z,94.56
2018-03-23T07:52:24.062Z,93.90
2018-03-23T07:54:49.786Z,93.31
2018-03-23T07:57:15.510Z,92.67
2018-03-23T07:59:41.227Z,93.09
2018-03-23T08:02:06.963Z,92.64
2018-03-23T08:04:32.689Z,92.33
2018-03-23T08:06:58.449Z,92.39
2018-03-23T08:09:24.146Z,92.49
2018-03-23T08:11:49.886Z,91.22
2018-03-23T08:14:15.597Z,91.55
2018-03-23T08:16:41.322Z,91.67
2018-03-23T08:19:07.063Z,90.81
2018-03-23T08:21:32.788Z,91.49
2018-03-23T08:23:58.501Z,92.01
2018-03-23T08:26:24.226Z,91.77
2018-03-23T08:28:49.952Z,90.55
2018-03-23T08:31:15.710Z,90.25
2018-03-23T08:33:41.469Z,90.83
2018-03-23T08:36:07.192Z,90.87
2018-03-23T08:38:32.938Z,89.87
2018-03-23T08:40:58.682Z,88.82
2018-03-23T08:43:24.420Z,87.75
2018-03-23T08:45:50.140Z,88.63
2018-03-23T08:48:15.881Z,88.44
2018-03-23T08:50:41.595Z,89.45
2018-03-23T08:53:07.318Z,88.29
2018-03-23T08:55:33.038Z,87.37
2018-03-23T08:57:58.753Z,88.10
2018-03-23T09:00:24.463Z,86.77
2018-03-23T09:02:50.185Z,86.90
2018-03-23T09:05:15.900Z,87.09
2018-03-23T09:07:41.625Z,86.90
2018-03-23T09:10:07.345Z,87.92
2018-03-23T09:12:33.078Z,88.32
2018-03-23T09:14:58.781Z,88.92
2018-03-23T09:17:24.506Z,87.44
2018-03-23T09:19:50.226Z,88.80
2018-03-23T09:22:15.973Z,89.08
2018-03-23T09:24:41.694Z,89.38
2018-03-23T09:27:07.417Z,89.86
2018-03-23T09:29:33.281Z,89.28
2018-03-23T09:31:58.997Z,89.26
2018-03-23T09:34:24.714Z,89.41
2018-03-23T09:36:50.439Z,88.98
2018-03-23T09:39:16.188Z,89.93
2018-03-23T09:41:41.907Z,89.81
2018-03-23T09:44:07.626Z,89.18
2018-03-23T09:46:33.362Z,88.82
2018-03-23T09:48:59.121Z,87.88
2018-03-23T09:51:24.839Z,87.03
2018-03-23T09:53:50.569Z,86.51
2018-03-23T09:56:16.286Z,85.87
2018-03-23T09:58:42.025Z,85.67
2018-03-23T10:01:07.739Z,85.54
2018-03-23T10:03:33.461Z,85.46
2018-03-23T10:05:59.170Z,86.05
2018-03-23T10:08:24.896Z,85.74
2018-03-23T10:10:50.627Z,85.85
2018-03-23T10:13:16.391Z,86.39
2018-03-23T10:15:42.063Z,84.71
2018-03-23T10:18:07.785Z,84.75
2018-03-23T10:20:33.510Z,84.03
2018-03-23T10:22:59.238Z,84.78
2018-03-23T10:25:24.975Z,84.47
2018-03-23T10:27:50.701Z,84.64
2018-03-23T10:30:16.418Z,84.82
2018-03-23T10:32:42.134Z,84.96
2018-03-23T10:35:07.878Z,83.92
2018-03-23T10:37:33.594Z,84.27
2018-03-23T10:39:59.317Z,83.10
2018-03-23T10:42:25.030Z,82.69
2018-03-23T10:44:50.757Z,84.47
2018-03-23T10:47:16.477Z,85.39
2018-03-23T10:49:42.206Z,85.52
2018-03-23T10:52:07.927Z,84.66
2018-03-23T10:54:33.645Z,84.39
2018-03-23T10:56:59.374Z,83.98
2018-03-23T10:59:25.091Z,83.05
2018-03-23T11:01:57.026Z,82.43
2018-03-23T11:04:22.743Z,83.10
2018-03-23T11:06:48.465Z,83.75
2018-03-23T11:09:14.183Z,84.62
2018-03-23T11:11:39.906Z,81.87
2018-03-23T11:14:05.622Z,83.33
2018-03-23T11:16:31.363Z,82.11
2018-03-23T11:18:57.086Z,82.75
2018-03-23T11:21:22.802Z,82.31
2018-03-23T11:23:48.520Z,80.73
2018-03-23T11:26:14.250Z,79.70
2018-03-23T11:28:39.965Z,80.30
2018-03-23T11:31:05.702Z,79.48
2018-03-23T11:33:31.419Z,77.90
2018-03-23T11:35:57.162Z,75.27
2018-03-23T11:38:23.069Z,76.09
2018-03-23T11:40:48.806Z,76.38
2018-03-23T11:43:14.521Z,71.85
2018-03-23T11:45:40.263Z,71.47
2018-03-23T11:48:06.006Z,74.27
2018-03-23T11:50:32.073Z,74.96
2018-03-23T11:52:57.820Z,78.02
2018-03-23T11:55:23.542Z,77.29
2018-03-23T11:57:49.266Z,77.85
2018-03-23T12:00:15.003Z,77.68
2018-03-23T12:02:40.724Z,77.03
2018-03-23T12:05:06.445Z,78.75
2018-03-23T12:07:32.191Z,79.04
2018-03-23T12:09:57.914Z,78.03
2018-03-23T12:12:23.642Z,78.33
2018-03-23T12:14:49.358Z,79.52
2018-03-23T12:17:15.074Z,79.66
2018-03-23T12:19:40.803Z,79.09
2018-03-23T12:22:06.529Z,78.58
2018-03-23T12:24:32.245Z,79.55
2018-03-23T12:26:57.985Z,78.33
2018-03-23T12:29:23.694Z,78.17
2018-03-23T12:31:49.418Z,78.80
2018-03-23T12:34:15.142Z,77.32
2018-03-23T12:36:40.853Z,77.55
2018-03-23T12:39:06.590Z,77.32
2018-03-23T12:41:32.310Z,76.17
2018-03-23T12:43:58.037Z,76.01
2018-03-23T12:46:23.752Z,76.22
2018-03-23T12:48:49.478Z,76.15
2018-03-23T12:51:15.195Z,76.79
2018-03-23T12:53:40.927Z,76.17
2018-03-23T12:56:06.634Z,75.35
2018-03-23T12:58:32.361Z,76.39
2018-03-23T13:00:58.072Z,75.99
2018-03-23T13:03:23.806Z,74.84
2018-03-23T13:05:49.522Z,76.42
2018-03-23T13:08:15.290Z,76.74
2018-03-23T13:10:41.009Z,77.01
2018-03-23T13:13:06.730Z,75.83
2018-03-23T13:15:32.485Z,76.68
2018-03-23T13:17:58.202Z,75.90
2018-03-23T13:20:23.926Z,75.84
2018-03-23T13:22:49.672Z,75.84
2018-03-23T13:25:15.382Z,75.47
2018-03-23T13:27:41.112Z,75.46
2018-03-23T13:30:06.831Z,75.88
2018-03-23T13:32:32.550Z,75.23
2018-03-23T13:34:58.288Z,75.18
2018-03-23T13:37:24.002Z,74.31
2018-03-23T13:39:49.739Z,74.81
2018-03-23T13:42:15.458Z,74.93
2018-03-23T13:44:41.220Z,75.34
2018-03-23T13:47:06.901Z,75.91
2018-03-23T13:49:32.642Z,75.14
2018-03-23T13:51:58.369Z,74.58
2018-03-23T13:54:24.119Z,75.22
2018-03-23T13:56:49.979Z,74.21
2018-03-23T13:59:21.866Z,75.29
2018-03-23T14:01:47.612Z,75.54
2018-03-23T14:04:13.330Z,75.31
2018-03-23T14:06:39.117Z,75.03
2018-03-23T14:09:04.855Z,75.27
2018-03-23T14:11:30.582Z,75.89
2018-03-23T14:13:56.298Z,75.42
2018-03-23T14:16:22.034Z,76.40
2018-03-23T14:18:48.448Z,76.01
2018-03-23T14:21:14.240Z,76.37
2018-03-23T14:23:40.134Z,75.84
2018-03-23T14:26:05.955Z,76.17
2018-03-23T14:28:31.784Z,76.52
2018-03-23T14:30:57.506Z,75.99
2018-03-23T14:33:23.221Z,75.64
2018-03-23T14:35:48.941Z,76.19
2018-03-23T14:38:14.649Z,76.29
2018-03-23T14:40:40.377Z,76.81
2018-03-23T14:43:06.182Z,76.44
2018-03-23T14:45:31.906Z,76.24
2018-03-23T14:47:57.628Z,76.85
2018-03-23T14:50:23.365Z,76.36
2018-03-23T14:52:49.074Z,76.45
2018-03-23T14:55:14.788Z,75.74
2018-03-23T14:57:40.521Z,76.77
2018-03-23T15:00:06.234Z,76.37
2018-03-23T15:02:31.970Z,76.83
2018-03-23T15:04:57.685Z,76.84
2018-03-23T15:07:23.406Z,77.34
2018-03-23T15:09:49.113Z,77.36
2018-03-23T15:12:14.842Z,78.01
2018-03-23T15:14:40.638Z,77.53
2018-03-23T15:17:06.376Z,77.55
2018-03-23T15:19:32.150Z,77.36
2018-03-23T15:21:57.883Z,77.69
2018-03-23T15:24:23.608Z,77.28
2018-03-23T15:26:49.346Z,77.63
2018-03-23T15:29:15.074Z,77.50
2018-03-23T15:31:40.871Z,76.83
2018-03-23T15:34:06.594Z,77.51
2018-03-23T15:36:32.339Z,77.61
2018-03-23T15:38:58.058Z,77.12
2018-03-23T15:41:23.811Z,77.41
2018-03-23T15:43:49.557Z,77.56
2018-03-23T15:46:15.347Z,77.42
2018-03-23T15:48:41.098Z,77.62
2018-03-23T15:51:06.894Z,77.27
2018-03-23T15:53:32.580Z,77.62
2018-03-23T15:55:58.303Z,77.62
2018-03-23T15:58:24.030Z,78.04
2018-03-23T16:00:49.763Z,77.86
2018-03-23T16:03:15.486Z,77.51
2018-03-23T16:05:41.266Z,77.99
2018-03-23T16:08:07.029Z,78.25
2018-03-23T16:10:32.790Z,78.57
2018-03-23T16:12:58.513Z,78.56
2018-03-23T16:15:24.300Z,78.62
2018-03-23T16:17:50.022Z,79.00
2018-03-23T16:20:15.737Z,78.84
2018-03-23T16:22:41.507Z,79.49
2018-03-23T16:25:07.243Z,79.22
2018-03-23T16:27:32.966Z,79.58
2018-03-23T16:29:58.693Z,79.44
2018-03-23T16:32:24.465Z,79.23
2018-03-23T16:34:50.210Z,79.18
2018-03-23T16:37:15.963Z,79.52
2018-03-23T16:39:41.707Z,79.87
2018-03-23T16:42:07.455Z,79.51
2018-03-23T16:44:33.202Z,79.68
2018-03-23T16:46:58.927Z,80.27
2018-03-23T16:49:24.708Z,80.10
2018-03-23T16:51:50.481Z,80.25
2018-03-23T16:54:16.203Z,80.39
2018-03-23T16:56:41.926Z,80.10
2018-03-23T16:59:07.659Z,80.53
2018-03-23T17:01:33.449Z,81.09
2018-03-23T17:03:59.187Z,80.64
2018-03-23T17:06:24.897Z,80.54
2018-03-23T17:08:50.620Z,80.85
2018-03-23T17:11:16.353Z,80.99
2018-03-23T17:13:42.123Z,81.23
2018-03-23T17:16:07.847Z,80.84
2018-03-23T17:18:33.553Z,81.14
2018-03-23T17:20:59.284Z,81.18
2018-03-23T17:23:25.027Z,81.31
2018-03-23T17:25:50.746Z,81.23
2018-03-23T17:28:16.460Z,81.35
2018-03-23T17:30:42.183Z,81.65
2018-03-23T17:33:07.905Z,82.00
2018-03-23T17:35:33.679Z,81.78
2018-03-23T17:37:59.413Z,81.71
2018-03-23T17:40:25.177Z,82.01
2018-03-23T17:42:50.896Z,82.07
2018-03-23T17:45:16.624Z,82.33
2018-03-23T17:47:42.393Z,82.28
2018-03-23T17:50:08.207Z,82.63
2018-03-23T17:52:33.914Z,82.91
2018-03-23T17:54:59.643Z,82.57
2018-03-23T17:57:25.366Z,82.16
2018-03-23T17:59:51.085Z,82.23
2018-03-23T18:02:16.836Z,82.50
2018-03-23T18:04:42.564Z,82.46
2018-03-23T18:07:08.349Z,82.35
2018-03-23T18:09:34.172Z,82.35
2018-03-23T18:11:59.895Z,82.47
2018-03-23T18:14:25.656Z,82.82
2018-03-23T18:16:51.369Z,82.88
2018-03-23T18:19:17.102Z,83.11
2018-03-23T18:21:42.837Z,83.39
2018-03-23T18:24:08.654Z,83.37
2018-03-23T18:26:34.408Z,83.40
2018-03-23T18:29:00.137Z,83.58
2018-03-23T18:31:25.878Z,83.91
2018-03-23T18:33:51.674Z,84.38
2018-03-23T18:36:17.422Z,84.35
2018-03-23T18:38:43.204Z,84.56
2018-03-23T18:41:08.975Z,84.60
2018-03-23T18:43:34.730Z,84.94
2018-03-23T18:46:00.474Z,85.12
2018-03-23T18:48:26.214Z,85.15
2018-03-23T18:50:51.934Z,85.39
2018-03-23T18:53:17.713Z,85.61
2018-03-23T18:55:43.446Z,85.71
2018-03-23T18:58:09.185Z,85.76
2018-03-23T19:00:34.927Z,85.78
2018-03-23T19:03:00.828Z,85.72
2018-03-23T19:05:26.585Z,85.84
2018-03-23T19:07:52.375Z,86.11
2018-03-23T19:10:18.101Z,85.69
2018-03-23T19:12:43.830Z,85.72
2018-03-23T19:15:09.575Z,85.80
2018-03-23T19:17:35.381Z,86.01
2018-03-23T19:20:01.179Z,86.31
2018-03-23T19:22:26.944Z,86.64
2018-03-23T19:24:52.727Z,87.50
2018-03-23T19:27:18.484Z,88.46
2018-03-23T19:29:44.283Z,87.84
2018-03-23T19:32:10.019Z,87.93
2018-03-23T19:34:35.774Z,88.09
2018-03-23T19:37:01.546Z,88.20
2018-03-23T19:39:27.377Z,88.15
2018-03-23T19:41:53.111Z,88.18
2018-03-23T19:44:18.874Z,87.92
2018-03-23T19:46:44.643Z,88.41
2018-03-23T19:49:10.435Z,88.26
2018-03-23T19:51:36.168Z,88.45
2018-03-23T19:54:01.893Z,88.00
2018-03-23T19:56:27.675Z,87.99
2018-03-23T19:58:53.402Z,88.12
2018-03-23T20:01:19.137Z,88.17
2018-03-23T20:03:44.864Z,88.21
2018-03-23T20:06:10.590Z,88.18
2018-03-23T20:08:36.358Z,88.34
2018-03-23T20:11:02.101Z,88.22
2018-03-23T20:13:27.879Z,88.25
2018-03-23T20:15:53.640Z,88.35
2018-03-23T20:18:22.492Z,88.61
2018-03-23T20:20:54.297Z,88.29
2018-03-23T20:23:20.078Z,88.22
2018-03-23T20:25:45.843Z,88.13
2018-03-23T20:28:17.694Z,88.79
2018-03-23T20:30:43.451Z,89.31
2018-03-23T20:33:09.198Z,89.42
2018-03-23T20:35:34.950Z,89.34
2018-03-23T20:38:00.735Z,89.66
2018-03-23T20:40:26.509Z,89.17
2018-03-23T20:42:52.246Z,89.49
2018-03-23T20:45:17.969Z,89.34
2018-03-23T20:47:43.703Z,89.27
2018-03-23T20:50:09.516Z,89.14
2018-03-23T20:52:35.251Z,89.15
2018-03-23T20:55:00.978Z,89.05
2018-03-23T20:57:26.724Z,89.09
2018-03-23T20:59:52.689Z,89.29
2018-03-23T21:02:18.429Z,89.12
2018-03-23T21:04:44.145Z,89.14
2018-03-23T21:07:09.858Z,89.34
2018-03-23T21:09:35.594Z,89.58
2018-03-23T21:12:01.317Z,89.56
2018-03-23T21:14:27.052Z,89.48
2018-03-23T21:16:52.773Z,89.54
2018-03-23T21:19:18.511Z,89.63
2018-03-23T21:21:44.246Z,90.08
2018-03-23T21:24:09.971Z,89.82
2018-03-23T21:26:35.704Z,89.85
2018-03-23T21:29:01.440Z,90.07
2018-03-23T21:31:27.195Z,90.59
2018-03-23T21:33:52.926Z,90.58
2018-03-23T21:36:18.670Z,91.12
2018-03-23T21:38:44.398Z,91.69
2018-03-23T21:41:10.137Z,91.44
2018-03-23T21:43:35.849Z,91.89
2018-03-23T21:46:01.572Z,92.54
2018-03-23T21:48:27.305Z,92.11
2018-03-23T21:50:53.037Z,92.35
2018-03-23T21:53:18.761Z,92.52
2018-03-23T21:55:44.494Z,93.15
2018-03-23T21:58:10.208Z,93.22
2018-03-23T22:00:35.930Z,93.20
2018-03-23T22:03:01.664Z,93.41
2018-03-23T22:05:27.409Z,93.30
2018-03-23T22:07:53.126Z,92.92
2018-03-23T22:10:18.837Z,92.99
2018-03-23T22:12:44.559Z,92.92
2018-03-23T22:15:10.277Z,92.94
2018-03-23T22:17:36.001Z,92.80
2018-03-23T22:20:01.714Z,92.59
2018-03-23T22:22:27.438Z,92.83
2018-03-23T22:24:53.153Z,93.09
2018-03-23T22:27:18.874Z,92.49
2018-03-23T22:29:44.586Z,92.38
2018-03-23T22:32:10.323Z,92.57
2018-03-23T22:34:36.035Z,92.50
2018-03-23T22:37:01.750Z,92.48
2018-03-23T22:39:27.479Z,92.37
2018-03-23T22:41:53.203Z,92.58
2018-03-23T22:44:18.914Z,92.44
2018-03-23T22:46:44.633Z,92.42
2018-03-23T22:49:10.369Z,92.54
2018-03-23T22:51:36.090Z,92.66
2018-03-23T22:54:01.820Z,92.74
2018-03-23T22:56:27.542Z,92.28
2018-03-23T22:58:53.318Z,92.18
2018-03-23T23:01:19.025Z,92.06
2018-03-23T23:03:44.753Z,92.45
2018-03-23T23:06:10.478Z,91.85
2018-03-23T23:08:36.209Z,91.92
2018-03-23T23:11:01.930Z,92.09
2018-03-23T23:13:27.650Z,92.11
2018-03-23T23:15:53.369Z,91.85
2018-03-23T23:18:19.097Z,92.00
2018-03-23T23:20:44.815Z,91.83
2018-03-23T23:23:10.534Z,91.69
2018-03-23T23:25:36.260Z,91.83
2018-03-23T23:28:01.981Z,91.91
2018-03-23T23:30:27.714Z,91.91
2018-03-23T23:32:53.450Z,91.70
2018-03-23T23:35:19.166Z,91.92
2018-03-23T23:37:44.885Z,91.73
2018-03-23T23:40:10.600Z,91.65
2018-03-23T23:42:36.318Z,91.72
2018-03-23T23:45:02.073Z,91.68
2018-03-23T23:47:27.806Z,91.58
2018-03-23T23:49:53.560Z,91.69
2018-03-23T23:52:19.277Z,91.92
2018-03-23T23:54:44.989Z,91.57
2018-03-23T23:57:10.754Z,91.58
2018-03-23T23:59:36.474Z,91.65
